To NAV CANADA Home Page Login to a new session Search on AWWS site Disclaimer Vers la page française équivalente Tips FAQ What's new on the site To the Forecasts and Observations / NOTAM section To "File a Flight Plan" website Publications and other links Update of the User's profile FIC Telephone Numbers My Weather Data Folder Route Weather Data Regional Weather Data Local Weather Data To the Forecasts and Observations / NOTAM section
Request Generated 10/21/2018 at 05:51:15 UTC . Weather information available at that time is displayed.

METAR/TAF

GOLDEN/BC    (show WxCam)

LWIS CYGE 210500Z AUTO 36002KT 01/M01 A3018=
LWIS CYGE 210400Z AUTO VRB02KT 01/M00 A3017=
LWIS CYGE 210300Z AUTO 00000KT 01/M00 A3016=

CYGE - No TAF is issued for this station

Your time UTC time
Weather data provided by Environment Canada and NAV CANADA